createdAt,value
2022-08-14T00:01:10.318Z,26.10
2022-08-14T00:03:41.534Z,26.00
2022-08-14T00:06:25.321Z,25.80
2022-08-14T00:08:59.149Z,25.70
2022-08-14T00:11:31.249Z,25.60
2022-08-14T00:14:01.449Z,25.60
2022-08-14T00:16:41.169Z,25.60
2022-08-14T00:19:21.387Z,25.40
2022-08-14T00:21:50.877Z,25.20
2022-08-14T00:24:28.293Z,25.40
2022-08-14T00:26:57.363Z,25.40
2022-08-14T00:29:40.016Z,25.20
2022-08-14T00:32:52.513Z,25.40
2022-08-14T00:35:01.344Z,25.60
2022-08-14T00:37:29.812Z,25.50
2022-08-14T00:40:00.274Z,25.50
2022-08-14T00:42:55.725Z,25.40
2022-08-14T00:45:18.585Z,25.20
2022-08-14T00:47:50.895Z,25.20
2022-08-14T00:50:22.202Z,25.20
2022-08-14T00:52:53.323Z,25.20
2022-08-14T00:55:22.018Z,25.40
2022-08-14T00:58:12.187Z,25.20
2022-08-14T01:00:47.353Z,25.30
2022-08-14T01:03:27.637Z,25.30
2022-08-14T01:06:00.751Z,25.30
2022-08-14T01:08:51.355Z,25.30
2022-08-14T01:11:35.534Z,25.20
2022-08-14T01:14:25.342Z,25.00
2022-08-14T01:16:55.691Z,25.10
2022-08-14T01:19:41.662Z,25.10
2022-08-14T01:22:13.392Z,25.40
2022-08-14T01:24:47.002Z,25.40
2022-08-14T01:27:20.004Z,25.20
2022-08-14T01:30:01.432Z,25.00
2022-08-14T01:32:35.622Z,24.80
2022-08-14T01:35:18.975Z,24.90
2022-08-14T01:38:00.733Z,24.90
2022-08-14T01:40:36.689Z,24.90
2022-08-14T01:43:18.838Z,25.00
2022-08-14T01:46:05.694Z,25.40
2022-08-14T01:48:37.047Z,25.50
2022-08-14T01:51:19.340Z,25.30
2022-08-14T01:53:55.306Z,25.30
2022-08-14T01:56:37.541Z,25.10
2022-08-14T01:59:19.951Z,25.30
2022-08-14T02:01:58.677Z,25.40
2022-08-14T02:04:56.026Z,25.30
2022-08-14T02:07:34.424Z,25.30
2022-08-14T02:10:13.217Z,25.40
2022-08-14T02:12:44.869Z,25.50
2022-08-14T02:15:22.391Z,25.60
2022-08-14T02:17:51.737Z,25.40
2022-08-14T02:20:23.822Z,25.20
2022-08-14T02:22:54.545Z,25.00
2022-08-14T02:25:24.672Z,24.70
2022-08-14T02:28:24.454Z,24.70
2022-08-14T02:30:48.275Z,24.60
2022-08-14T02:33:23.325Z,24.70
2022-08-14T02:36:04.913Z,24.80
2022-08-14T02:38:41.409Z,24.70
2022-08-14T02:41:14.893Z,24.90
2022-08-14T02:43:46.552Z,24.90
2022-08-14T02:46:20.411Z,24.90
2022-08-14T02:49:04.363Z,24.70
2022-08-14T02:51:34.679Z,24.80
2022-08-14T02:54:05.062Z,24.70
2022-08-14T02:57:15.530Z,24.60
2022-08-14T02:59:29.591Z,24.50
2022-08-14T03:02:03.186Z,24.80
2022-08-14T03:04:31.451Z,24.60
2022-08-14T03:07:07.308Z,24.60
2022-08-14T03:10:25.122Z,24.50
2022-08-14T03:12:32.071Z,24.50
2022-08-14T03:15:16.249Z,24.40
2022-08-14T03:17:57.636Z,24.20
2022-08-14T03:20:28.947Z,24.20
2022-08-14T03:22:59.477Z,24.20
2022-08-14T03:25:33.318Z,24.20
2022-08-14T03:28:05.381Z,24.10
2022-08-14T03:30:39.137Z,24.10
2022-08-14T03:33:10.244Z,24.30
2022-08-14T03:36:05.645Z,24.30
2022-08-14T03:39:13.173Z,24.50
2022-08-14T03:41:17.709Z,24.60
2022-08-14T03:43:47.666Z,24.60
2022-08-14T03:46:51.925Z,24.60
2022-08-14T03:49:16.401Z,24.30
2022-08-14T03:51:52.406Z,24.40
2022-08-14T03:54:21.888Z,24.40
2022-08-14T03:56:52.121Z,24.20
2022-08-14T03:59:22.434Z,24.20
2022-08-14T04:01:57.902Z,24.00
2022-08-14T04:04:29.553Z,23.90
2022-08-14T04:06:59.197Z,23.60
2022-08-14T04:09:27.513Z,23.60
2022-08-14T04:11:57.992Z,23.70
2022-08-14T04:14:29.428Z,23.60
2022-08-14T04:16:57.642Z,23.50
2022-08-14T04:19:28.149Z,23.60
2022-08-14T04:22:04.096Z,23.60
2022-08-14T04:24:38.436Z,23.60
2022-08-14T04:27:17.103Z,23.60
2022-08-14T04:29:46.712Z,23.60
2022-08-14T04:32:59.157Z,23.60
2022-08-14T04:35:07.578Z,23.70
2022-08-14T04:37:55.967Z,23.60
2022-08-14T04:40:42.280Z,23.70
2022-08-14T04:43:38.186Z,23.70
2022-08-14T04:46:11.875Z,23.80
2022-08-14T04:49:02.283Z,24.00
2022-08-14T04:51:47.015Z,24.00
2022-08-14T04:54:18.707Z,24.00
2022-08-14T04:56:46.529Z,24.10
2022-08-14T04:59:14.388Z,24.20
2022-08-14T05:01:48.033Z,24.20
2022-08-14T05:04:20.204Z,24.20
2022-08-14T05:06:49.485Z,24.20
2022-08-14T05:09:21.607Z,24.30
2022-08-14T05:11:49.919Z,24.20
2022-08-14T05:14:45.963Z,24.30
2022-08-14T05:17:13.074Z,24.40
2022-08-14T05:19:44.288Z,24.20
2022-08-14T05:22:28.920Z,24.20
2022-08-14T05:25:00.239Z,24.40
2022-08-14T05:27:31.153Z,24.60
2022-08-14T05:30:05.079Z,24.80
2022-08-14T05:32:38.872Z,24.60
2022-08-14T05:35:07.557Z,24.80
2022-08-14T05:37:35.821Z,25.10
2022-08-14T05:40:04.616Z,25.20
2022-08-14T05:42:34.446Z,25.30
2022-08-14T05:45:04.593Z,25.30
2022-08-14T05:47:34.145Z,25.40
2022-08-14T05:50:18.923Z,25.50
2022-08-14T05:52:49.341Z,25.50
2022-08-14T05:55:21.948Z,25.70
2022-08-14T05:57:54.427Z,25.70
2022-08-14T06:00:29.284Z,25.90
2022-08-14T06:03:07.066Z,25.90
2022-08-14T06:05:38.640Z,25.90
2022-08-14T06:08:08.505Z,25.60
2022-08-14T06:10:52.187Z,25.70
2022-08-14T06:13:20.869Z,25.80
2022-08-14T06:15:52.092Z,25.80
2022-08-14T06:18:21.269Z,26.10
2022-08-14T06:20:57.608Z,26.20
2022-08-14T06:23:25.614Z,26.30
2022-08-14T06:25:55.483Z,26.40
2022-08-14T06:28:28.011Z,26.60
2022-08-14T06:30:59.190Z,26.60
2022-08-14T06:33:30.048Z,26.70
2022-08-14T06:36:19.098Z,26.90
2022-08-14T06:38:50.289Z,27.00
2022-08-14T06:41:20.811Z,27.00
2022-08-14T06:44:09.698Z,27.10
2022-08-14T06:46:38.252Z,27.10
2022-08-14T06:49:06.469Z,27.20
2022-08-14T06:51:38.829Z,27.40
2022-08-14T06:54:12.639Z,27.60
2022-08-14T06:56:44.079Z,27.70
2022-08-14T06:59:16.005Z,27.70
2022-08-14T07:02:05.484Z,27.80
2022-08-14T07:04:50.887Z,28.00
2022-08-14T07:07:20.406Z,28.10
2022-08-14T07:09:51.007Z,28.10
2022-08-14T07:12:44.861Z,28.10
2022-08-14T07:15:08.418Z,28.50
2022-08-14T07:17:46.626Z,28.70
2022-08-14T07:20:30.571Z,28.80
2022-08-14T07:23:08.651Z,28.80
2022-08-14T07:25:42.206Z,29.10
2022-08-14T07:28:21.105Z,28.80
2022-08-14T07:30:51.009Z,29.30
2022-08-14T07:33:24.271Z,29.60
2022-08-14T07:36:03.363Z,29.80
2022-08-14T07:38:52.502Z,29.80
2022-08-14T07:41:20.636Z,29.00
2022-08-14T07:43:55.942Z,29.20
2022-08-14T07:46:28.658Z,29.50
2022-08-14T07:48:58.889Z,29.80
2022-08-14T07:51:34.256Z,29.30
2022-08-14T07:54:10.945Z,29.70
2022-08-14T07:56:47.007Z,29.70
2022-08-14T07:59:18.807Z,29.80
2022-08-14T08:01:48.378Z,30.20
2022-08-14T08:04:25.267Z,30.50
2022-08-14T08:06:55.209Z,30.40
2022-08-14T08:09:31.897Z,30.40
2022-08-14T08:12:04.650Z,30.40
2022-08-14T08:14:34.646Z,30.60
2022-08-14T08:17:34.852Z,30.50
2022-08-14T08:20:11.395Z,30.70
2022-08-14T08:22:40.908Z,30.80
2022-08-14T08:25:13.962Z,30.30
2022-08-14T08:27:58.784Z,30.80
2022-08-14T08:30:27.297Z,31.10
2022-08-14T08:33:03.106Z,31.00
2022-08-14T08:35:47.252Z,30.70
2022-08-14T08:39:18.341Z,30.80
2022-08-14T08:41:11.303Z,31.00
2022-08-14T08:43:46.331Z,30.80
2022-08-14T08:46:21.408Z,30.90
2022-08-14T08:51:30.840Z,31.10
2022-08-14T08:54:01.769Z,31.20
2022-08-14T08:56:46.112Z,31.10
2022-08-14T08:59:20.838Z,31.30
2022-08-14T09:01:58.589Z,31.50
2022-08-14T09:04:28.621Z,31.40
2022-08-14T09:07:09.551Z,31.50
2022-08-14T09:09:53.659Z,31.60
2022-08-14T09:12:23.966Z,31.60
2022-08-14T09:14:53.362Z,31.60
2022-08-14T09:17:25.828Z,31.80
2022-08-14T09:19:55.308Z,31.40
2022-08-14T09:22:35.427Z,31.30
2022-08-14T09:25:07.555Z,31.30
2022-08-14T09:27:39.717Z,31.60
2022-08-14T09:30:31.710Z,31.70
2022-08-14T09:33:36.531Z,32.00
2022-08-14T09:36:35.494Z,32.30
2022-08-14T09:39:14.881Z,32.20
2022-08-14T09:42:21.370Z,32.10
2022-08-14T09:45:08.707Z,32.20
2022-08-14T09:47:49.169Z,31.10
2022-08-14T09:50:25.811Z,31.90
2022-08-14T09:52:57.707Z,32.00
2022-08-14T09:55:28.171Z,32.10
2022-08-14T09:58:19.152Z,32.20
2022-08-14T10:00:53.992Z,32.30
2022-08-14T10:03:33.810Z,32.30
2022-08-14T10:06:07.252Z,32.50
2022-08-14T10:08:50.656Z,32.40
2022-08-14T10:11:23.118Z,32.40
2022-08-14T10:13:55.735Z,32.70
2022-08-14T10:16:33.423Z,32.70
2022-08-14T10:19:10.125Z,32.90
2022-08-14T10:23:11.248Z,32.60
2022-08-14T10:24:36.316Z,32.60
2022-08-14T10:27:06.467Z,32.80
2022-08-14T10:29:37.503Z,32.90
2022-08-14T10:32:17.367Z,32.90
2022-08-14T10:34:52.812Z,32.80
2022-08-14T10:37:23.645Z,33.20
2022-08-14T10:40:01.714Z,32.90
2022-08-14T10:42:38.278Z,33.40
2022-08-14T10:45:21.204Z,33.40
2022-08-14T10:48:09.733Z,33.70
2022-08-14T10:50:46.481Z,33.70
2022-08-14T10:53:19.877Z,33.30
2022-08-14T10:55:48.168Z,33.40
2022-08-14T10:58:34.177Z,33.70
2022-08-14T11:01:08.176Z,33.50
2022-08-14T11:03:56.817Z,33.80
2022-08-14T11:06:29.904Z,33.70
2022-08-14T11:09:09.579Z,34.10
2022-08-14T11:11:44.362Z,34.10
2022-08-14T11:14:22.602Z,34.10
2022-08-14T11:16:53.607Z,34.20
2022-08-14T11:19:28.994Z,34.20
2022-08-14T11:22:01.105Z,34.30
2022-08-14T11:24:55.257Z,34.30
2022-08-14T11:27:22.125Z,34.20
2022-08-14T11:30:50.710Z,34.10
2022-08-14T11:32:50.984Z,34.00
2022-08-14T11:35:37.055Z,34.10
2022-08-14T11:38:12.603Z,33.90
2022-08-14T11:40:40.599Z,33.70
2022-08-14T11:43:10.903Z,33.90
2022-08-14T11:45:41.427Z,33.80
2022-08-14T11:49:02.019Z,34.10
2022-08-14T11:51:13.966Z,34.00
2022-08-14T11:53:43.680Z,33.70
2022-08-14T11:56:17.550Z,33.50
2022-08-14T11:58:57.310Z,33.50
2022-08-14T12:01:28.867Z,33.80
2022-08-14T12:03:59.086Z,33.60
2022-08-14T12:06:39.489Z,33.50
2022-08-14T12:09:08.878Z,33.70
2022-08-14T12:11:46.868Z,33.50
2022-08-14T12:14:34.691Z,34.00
2022-08-14T12:17:06.629Z,33.80
2022-08-14T12:19:53.935Z,33.90
2022-08-14T12:22:35.485Z,34.20
2022-08-14T12:25:09.984Z,34.10
2022-08-14T12:27:46.765Z,34.20
2022-08-14T12:30:39.556Z,34.50
2022-08-14T12:33:25.692Z,34.50
2022-08-14T12:35:57.913Z,34.50
2022-08-14T12:38:36.471Z,34.60
2022-08-14T12:41:10.181Z,34.60
2022-08-14T12:43:48.016Z,34.30
2022-08-14T12:46:28.520Z,34.10
2022-08-14T12:48:58.737Z,34.60
2022-08-14T12:51:28.362Z,34.40
2022-08-14T12:54:01.153Z,33.80
2022-08-14T12:56:32.931Z,34.30
2022-08-14T12:59:02.502Z,34.70
2022-08-14T13:01:59.875Z,34.80
2022-08-14T13:04:24.761Z,34.80
2022-08-14T13:06:53.858Z,34.90
2022-08-14T13:09:35.707Z,34.80
2022-08-14T13:12:31.244Z,35.00
2022-08-14T13:14:57.737Z,34.90
2022-08-14T13:17:26.993Z,34.90
2022-08-14T13:20:00.744Z,34.90
2022-08-14T13:22:38.426Z,35.10
2022-08-14T13:25:15.796Z,34.90
2022-08-14T13:27:46.380Z,34.70
2022-08-14T13:30:24.251Z,34.80
2022-08-14T13:32:53.860Z,34.80
2022-08-14T13:35:23.050Z,34.60
2022-08-14T13:37:53.417Z,34.80
2022-08-14T13:40:26.430Z,34.50
2022-08-14T13:42:57.322Z,34.80
2022-08-14T13:46:00.053Z,35.00
2022-08-14T13:48:27.787Z,35.10
2022-08-14T13:51:04.745Z,35.20
2022-08-14T13:53:35.058Z,35.10
2022-08-14T13:56:07.988Z,34.90
2022-08-14T13:58:47.046Z,35.00
2022-08-14T14:01:17.416Z,35.20
2022-08-14T14:03:51.454Z,35.10
2022-08-14T14:06:24.656Z,35.20
2022-08-14T14:08:59.061Z,35.30
2022-08-14T14:11:32.811Z,35.20
2022-08-14T14:14:02.694Z,34.90
2022-08-14T14:16:33.003Z,35.30
2022-08-14T14:19:09.749Z,35.50
2022-08-14T14:21:40.587Z,35.30
2022-08-14T14:24:14.721Z,35.50
2022-08-14T14:26:49.922Z,35.50
2022-08-14T14:29:24.212Z,35.70
2022-08-14T14:31:58.627Z,35.70
2022-08-14T14:34:33.288Z,35.80
2022-08-14T14:37:04.423Z,35.80
2022-08-14T14:39:38.088Z,35.50
2022-08-14T14:42:31.835Z,35.70
2022-08-14T14:45:05.670Z,35.50
2022-08-14T14:47:35.222Z,35.50
2022-08-14T14:50:04.987Z,35.20
2022-08-14T14:52:39.725Z,35.20
2022-08-14T14:55:18.789Z,35.10
2022-08-14T14:57:52.123Z,35.00
2022-08-14T15:00:31.000Z,35.00
2022-08-14T15:02:59.948Z,34.90
2022-08-14T15:05:35.200Z,34.80
2022-08-14T15:08:03.262Z,34.90
2022-08-14T15:10:40.050Z,34.70
2022-08-14T15:13:14.174Z,34.70
2022-08-14T15:15:44.575Z,34.60
2022-08-14T15:18:36.149Z,34.70
2022-08-14T15:21:07.927Z,34.40
2022-08-14T15:23:44.103Z,34.50
2022-08-14T15:26:23.873Z,34.60
2022-08-14T15:29:04.937Z,34.70
2022-08-14T15:31:34.843Z,34.60
2022-08-14T15:34:43.155Z,34.70
2022-08-14T15:37:12.664Z,34.40
2022-08-14T15:39:41.991Z,34.50
2022-08-14T15:42:15.782Z,34.50
2022-08-14T15:44:57.752Z,34.60
2022-08-14T15:47:30.673Z,34.40
2022-08-14T15:50:00.601Z,34.40
2022-08-14T15:52:33.165Z,34.40
2022-08-14T15:55:04.600Z,34.40
2022-08-14T15:57:32.448Z,34.40
2022-08-14T16:00:40.163Z,34.40
2022-08-14T16:03:14.057Z,34.60
2022-08-14T16:05:43.663Z,34.40
2022-08-14T16:08:27.105Z,34.40
2022-08-14T16:10:59.100Z,34.40
2022-08-14T16:13:40.584Z,34.40
2022-08-14T16:16:35.017Z,34.20
2022-08-14T16:19:11.221Z,34.30
2022-08-14T16:22:02.192Z,34.40
2022-08-14T16:24:34.708Z,34.30
2022-08-14T16:27:05.115Z,34.40
2022-08-14T16:29:35.969Z,34.50
2022-08-14T16:32:32.464Z,34.40
2022-08-14T16:35:01.178Z,34.40
2022-08-14T16:37:34.289Z,34.30
2022-08-14T16:40:04.277Z,34.30
2022-08-14T16:43:02.570Z,34.20
2022-08-14T16:45:25.712Z,34.20
2022-08-14T16:47:59.131Z,34.20
2022-08-14T16:50:40.702Z,34.10
2022-08-14T16:53:12.328Z,34.10
2022-08-14T16:55:53.231Z,34.10
2022-08-14T16:58:29.652Z,34.10
2022-08-14T17:01:24.521Z,34.10
2022-08-14T17:03:58.151Z,33.90
2022-08-14T17:06:45.874Z,34.10
2022-08-14T17:09:35.686Z,34.00
2022-08-14T17:12:09.357Z,34.10
2022-08-14T17:15:03.314Z,33.90
2022-08-14T17:17:49.908Z,33.80
2022-08-14T17:20:54.802Z,34.00
2022-08-14T17:23:16.206Z,34.10
2022-08-14T17:25:50.890Z,34.00
2022-08-14T17:28:51.182Z,33.90
2022-08-14T17:31:08.995Z,34.00
2022-08-14T17:33:44.171Z,33.90
2022-08-14T17:36:20.714Z,33.90
2022-08-14T17:42:02.879Z,33.80
2022-08-14T17:44:45.141Z,33.90
2022-08-14T17:47:18.616Z,33.80
2022-08-14T17:49:53.716Z,33.80
2022-08-14T17:52:36.482Z,33.80
2022-08-14T17:56:01.038Z,33.80
2022-08-14T17:58:16.499Z,33.80
2022-08-14T18:00:51.432Z,33.80
2022-08-14T18:03:44.901Z,33.70
2022-08-14T18:06:39.103Z,33.70
2022-08-14T18:09:02.093Z,33.50
2022-08-14T18:11:45.815Z,33.50
2022-08-14T18:14:31.653Z,33.40
2022-08-14T18:17:05.572Z,33.30
2022-08-14T18:19:38.092Z,33.30
2022-08-14T18:22:23.633Z,33.10
2022-08-14T18:25:02.303Z,33.10
2022-08-14T18:27:41.697Z,33.00
2022-08-14T18:30:32.045Z,32.90
2022-08-14T18:33:35.148Z,33.00
2022-08-14T18:36:47.535Z,33.00
2022-08-14T18:39:34.650Z,32.90
2022-08-14T18:43:04.085Z,32.80
2022-08-14T18:45:43.061Z,32.60
2022-08-14T18:48:51.655Z,32.60
2022-08-14T18:51:51.625Z,32.70
2022-08-14T18:54:59.040Z,32.50
2022-08-14T18:58:34.192Z,32.60
2022-08-14T19:01:33.693Z,32.40
2022-08-14T19:04:50.358Z,32.40
2022-08-14T19:08:12.582Z,32.40
2022-08-14T19:11:43.363Z,32.30
2022-08-14T19:14:41.932Z,32.20
2022-08-14T19:18:13.830Z,32.10
2022-08-14T19:24:43.978Z,32.00
2022-08-14T19:27:55.597Z,32.10
2022-08-14T19:45:05.141Z,31.80
2022-08-14T19:51:23.192Z,31.80
2022-08-14T19:58:57.579Z,31.70
2022-08-14T20:01:18.454Z,31.70
2022-08-14T20:11:01.368Z,31.70
2022-08-14T20:15:53.098Z,31.50
2022-08-14T20:18:50.645Z,31.50
2022-08-14T20:28:59.432Z,31.20
2022-08-14T20:32:53.201Z,31.20
2022-08-14T20:36:26.683Z,31.20
2022-08-14T20:40:23.805Z,31.20
2022-08-14T20:53:37.470Z,30.90
2022-08-14T20:58:44.638Z,30.90
2022-08-14T21:00:58.842Z,30.90
2022-08-14T21:08:02.673Z,30.80
2022-08-14T21:14:38.638Z,30.70
2022-08-14T21:17:49.089Z,30.60
2022-08-14T21:20:36.435Z,30.60
2022-08-14T21:23:58.914Z,30.50
2022-08-14T21:27:00.351Z,30.40
2022-08-14T21:30:51.648Z,30.30
2022-08-14T21:37:33.554Z,30.50
2022-08-14T21:44:00.514Z,30.20
2022-08-14T21:50:39.577Z,30.00
2022-08-14T21:53:59.892Z,30.20
2022-08-14T22:00:58.577Z,30.10
2022-08-14T22:04:33.331Z,30.20
2022-08-14T22:11:21.705Z,29.90
2022-08-14T22:17:22.876Z,29.70
2022-08-14T22:19:55.048Z,29.70
2022-08-14T22:22:26.316Z,29.70
2022-08-14T22:24:59.934Z,29.60
2022-08-14T22:27:32.169Z,29.50
2022-08-14T22:30:01.090Z,29.70
2022-08-14T22:32:55.973Z,29.50
2022-08-14T22:35:18.867Z,29.40
2022-08-14T22:38:01.466Z,29.50
2022-08-14T22:41:07.426Z,29.40
2022-08-14T22:43:31.408Z,29.60
2022-08-14T22:46:02.234Z,29.30
2022-08-14T22:48:30.652Z,29.10
2022-08-14T22:50:58.405Z,29.10
2022-08-14T22:53:29.284Z,29.10
2022-08-14T22:55:57.853Z,29.00
2022-08-14T22:58:30.330Z,28.90
2022-08-14T23:01:02.379Z,28.80
2022-08-14T23:03:34.384Z,28.80
2022-08-14T23:06:04.306Z,28.80
2022-08-14T23:08:57.827Z,28.80
2022-08-14T23:11:30.209Z,28.60
2022-08-14T23:14:00.889Z,28.70
2022-08-14T23:16:32.171Z,28.80
2022-08-14T23:19:00.267Z,28.70
2022-08-14T23:21:28.890Z,28.80
2022-08-14T23:23:58.398Z,28.70
2022-08-14T23:26:47.870Z,28.60
2022-08-14T23:29:18.483Z,28.40
2022-08-14T23:31:48.393Z,28.40
2022-08-14T23:34:21.090Z,28.30
2022-08-14T23:36:53.040Z,28.10
2022-08-14T23:39:24.260Z,28.20
2022-08-14T23:41:53.789Z,28.10
2022-08-14T23:44:23.914Z,27.70
2022-08-14T23:46:56.912Z,27.80
2022-08-14T23:49:56.721Z,27.70
2022-08-14T23:52:50.272Z,27.70
2022-08-14T23:55:11.502Z,27.60
2022-08-14T23:57:44.220Z,27.60
